Time;durP1;ratioP1;P1;durP2;ratioP2;P2;SDS_P1;SDS_P2;PMS_P1;PMS_P2;Temp;Humidity;BMP_temperature;BMP_pressure;BME280_temperature;BME280_humidity;BME280_pressure;Samples;Min_cycle;Max_cycle;Signal;HPM_P1;HPM_P2
2023/03/13 00:00:51;;;;;;;7.95;4.78;;;;;;;3.10;66.70;101348.38;4925943;29;20040;-90
2023/03/13 00:03:19;;;;;;;10.23;5.50;;;;;;;3.19;66.48;101354.94;4926544;29;20084;-91
2023/03/13 00:05:45;;;;;;;9.10;5.50;;;;;;;3.07;66.25;101328.16;4913948;29;20043;-88
2023/03/13 00:08:15;;;;;;;10.38;6.57;;;;;;;3.13;66.74;101349.03;4914212;29;20131;-90
2023/03/13 00:10:42;;;;;;;14.02;7.30;;;;;;;3.07;66.99;101341.44;4896175;29;20040;-90
2023/03/13 00:13:09;;;;;;;18.67;10.05;;;;;;;3.14;67.71;101352.56;4907472;29;20516;-91
2023/03/13 00:15:36;;;;;;;17.90;10.40;;;;;;;3.07;68.06;101338.78;4898513;29;20056;-90
2023/03/13 00:18:02;;;;;;;19.80;11.68;;;;;;;3.16;69.36;101364.78;4897945;29;20055;-90
2023/03/13 00:20:29;;;;;;;22.77;11.82;;;;;;;2.98;69.30;101336.72;4891653;29;20490;-91
2023/03/13 00:22:56;;;;;;;20.27;11.38;;;;;;;3.00;69.45;101337.47;4912225;29;20484;-90
2023/03/13 00:25:22;;;;;;;22.42;11.77;;;;;;;2.99;70.01;101333.09;4921178;29;20047;-89
2023/03/13 00:27:52;;;;;;;21.00;11.60;;;;;;;3.01;69.95;101331.19;4924001;29;20115;-89
2023/03/13 00:30:18;;;;;;;21.52;12.40;;;;;;;3.07;69.96;101337.94;4924463;29;20205;-89
2023/03/13 00:32:45;;;;;;;21.52;12.02;;;;;;;2.97;70.12;101337.63;4914396;29;20052;-91
2023/03/13 00:35:12;;;;;;;20.60;11.57;;;;;;;2.86;70.79;101321.53;4937958;29;20040;-89
2023/03/13 00:37:38;;;;;;;21.58;11.05;;;;;;;2.84;71.36;101326.09;4924386;29;20047;-91
2023/03/13 00:40:08;;;;;;;20.48;11.25;;;;;;;2.96;71.80;101362.50;4908756;29;20115;-89
2023/03/13 00:42:35;;;;;;;18.92;10.70;;;;;;;2.80;72.32;101345.81;4941353;29;20047;-91
2023/03/13 00:45:03;;;;;;;21.38;11.45;;;;;;;2.85;72.25;101354.34;4914971;29;20051;-90
2023/03/13 00:47:33;;;;;;;17.20;10.50;;;;;;;2.78;72.45;101347.69;4929802;29;20051;-91
2023/03/13 00:50:00;;;;;;;18.75;10.73;;;;;;;2.67;72.56;101343.91;4927624;29;20048;-88
2023/03/13 00:52:27;;;;;;;18.38;10.23;;;;;;;2.68;72.54;101344.75;4933085;29;20062;-89
2023/03/13 00:54:52;;;;;;;18.75;10.27;;;;;;;2.60;73.16;101347.88;4913055;29;20039;-90
2023/03/13 00:57:19;;;;;;;19.35;9.65;;;;;;;2.59;73.07;101340.84;4898570;29;20107;-91
2023/03/13 00:59:45;;;;;;;19.80;10.32;;;;;;;2.58;73.79;101360.41;4919103;29;20052;-90
2023/03/13 01:02:12;;;;;;;19.35;9.93;;;;;;;2.41;74.16;101344.59;4919280;29;20052;-91
2023/03/13 01:04:38;;;;;;;20.05;10.48;;;;;;;2.37;74.28;101343.09;4910160;29;20040;-92
2023/03/13 01:07:05;;;;;;;21.27;10.32;;;;;;;2.39;74.20;101352.69;4912684;29;20107;-89
2023/03/13 01:09:31;;;;;;;15.98;9.68;;;;;;;2.38;74.22;101350.97;4934245;29;20059;-90
2023/03/13 01:11:59;;;;;;;20.15;10.52;;;;;;;2.32;74.29;101351.34;4928092;29;20060;-91
2023/03/13 01:14:29;;;;;;;16.25;9.27;;;;;;;2.37;74.62;101364.34;4931985;29;20492;-91
2023/03/13 01:16:57;;;;;;;16.60;9.77;;;;;;;2.38;74.80;101366.03;4923810;29;20147;-90
2023/03/13 01:19:25;;;;;;;17.92;10.02;;;;;;;2.34;74.62;101357.38;4948066;29;20051;-88
2023/03/13 01:21:59;;;;;;;19.08;10.07;;;;;;;2.14;75.49;101340.00;4933595;29;20109;-91
2023/03/13 01:24:25;;;;;;;18.45;10.38;;;;;;;2.32;75.00;101354.84;4944028;29;20073;-90
2023/03/13 01:26:56;;;;;;;21.02;10.02;;;;;;;2.27;75.42;101370.19;4935458;29;20040;-92
2023/03/13 01:29:22;;;;;;;20.38;9.63;;;;;;;2.37;75.48;101380.25;4952179;29;20067;-89
2023/03/13 01:31:51;;;;;;;18.23;9.75;;;;;;;2.29;75.96;101384.22;4898979;29;20433;-93
2023/03/13 01:34:22;;;;;;;17.58;9.43;;;;;;;2.14;75.99;101368.34;4919082;29;20132;-93
2023/03/13 01:36:50;;;;;;;18.38;9.95;;;;;;;2.14;76.21;101366.53;4907968;29;20036;-93
2023/03/13 01:39:19;;;;;;;18.00;10.20;;;;;;;2.24;76.14;101385.41;4900493;29;20043;-91
2023/03/13 01:41:53;;;;;;;16.42;9.40;;;;;;;1.99;76.81;101354.13;4911117;29;20044;-92
2023/03/13 01:44:24;;;;;;;16.67;9.90;;;;;;;2.01;76.77;101353.09;4931434;29;20086;-91
2023/03/13 01:46:53;;;;;;;20.92;9.73;;;;;;;1.96;76.68;101343.72;4912013;29;20353;-91
2023/03/13 01:49:32;;;;;;;20.63;9.77;;;;;;;2.24;76.63;101410.16;4934070;29;20195;-92
2023/03/13 01:52:02;;;;;;;18.15;9.40;;;;;;;2.13;77.18;101403.75;4913566;29;20044;-91
2023/03/13 01:55:00;;;;;;;19.90;9.80;;;;;;;2.21;76.80;101415.63;4898380;29;20545;-92
2023/03/13 01:57:49;;;;;;;17.50;9.85;;;;;;;2.01;77.11;101406.16;4908191;29;20040;-89
2023/03/13 02:00:27;;;;;;;18.98;9.50;;;;;;;2.13;77.38;101420.53;4918263;29;20048;-92
2023/03/13 02:02:57;;;;;;;18.75;9.82;;;;;;;2.12;77.01;101424.13;4923791;29;20050;-93
2023/03/13 02:05:26;;;;;;;19.17;10.00;;;;;;;2.14;77.14;101427.53;4928500;29;20063;-92
2023/03/13 02:08:31;;;;;;;19.02;9.63;;;;;;;2.20;76.82;101432.50;4905593;29;20230;-91
2023/03/13 02:11:29;;;;;;;19.02;9.93;;;;;;;2.16;76.70;101430.13;4930215;29;20111;-91
2023/03/13 02:13:59;;;;;;;17.38;9.65;;;;;;;2.13;76.33;101441.78;4916295;29;20036;-94
2023/03/13 02:19:17;;;;;;;17.17;9.80;;;;;;;2.12;76.25;101450.66;4989007;23;20157;-95
2023/03/13 02:22:04;;;;;;;17.50;9.60;;;;;;;2.00;76.06;101438.94;4928311;28;20151;-91
2023/03/13 02:25:03;;;;;;;18.63;9.90;;;;;;;1.85;76.66;101448.63;4945704;28;20467;-93
2023/03/13 02:27:36;;;;;;;21.73;10.02;;;;;;;1.69;76.51;101435.34;4937709;28;20126;-94
2023/03/13 02:30:08;;;;;;;18.77;10.05;;;;;;;1.74;76.87;101448.34;4922582;28;20042;-94
2023/03/13 02:32:39;;;;;;;22.60;11.70;;;;;;;1.79;76.95;101453.41;4943747;28;20051;-91
2023/03/13 02:35:12;;;;;;;24.52;10.93;;;;;;;1.62;76.55;101430.50;4938058;28;20126;-93
2023/03/13 02:37:39;;;;;;;24.52;11.40;;;;;;;1.73;77.05;101449.28;4952539;28;20047;-92
2023/03/13 02:40:13;;;;;;;22.00;11.30;;;;;;;1.68;76.93;101440.72;4952068;28;20133;-90
2023/03/13 02:42:41;;;;;;;22.13;12.20;;;;;;;1.85;76.73;101453.94;4961637;28;20038;-92
2023/03/13 02:45:10;;;;;;;26.88;12.93;;;;;;;1.80;76.95;101463.06;4951966;28;20039;-92
2023/03/13 02:47:37;;;;;;;24.42;13.30;;;;;;;1.86;77.15;101476.84;4949425;28;20057;-88
2023/03/13 02:50:04;;;;;;;31.52;14.55;;;;;;;1.84;77.00;101478.72;4930701;28;20034;-91
2023/03/13 02:52:37;;;;;;;30.63;15.52;;;;;;;1.65;77.71;101467.41;4932502;28;20106;-91
2023/03/13 02:55:26;;;;;;;34.05;16.60;;;;;;;1.62;77.82;101473.75;4941387;28;20079;-93
2023/03/13 02:57:55;;;;;;;32.00;15.98;;;;;;;1.77;77.20;101473.84;4927909;29;20126;-89
2023/03/13 03:00:25;;;;;;;32.67;16.92;;;;;;;1.68;77.44;101473.38;4944130;28;20058;-91
2023/03/13 03:02:53;;;;;;;30.25;16.00;;;;;;;1.67;77.33;101463.75;4927134;28;20137;-89
2023/03/13 03:05:18;;;;;;;32.50;16.00;;;;;;;1.65;77.14;101462.97;4929675;28;20110;-89
2023/03/13 03:07:53;;;;;;;29.30;16.67;;;;;;;1.60;77.59;101469.47;4957360;28;20156;-94
2023/03/13 03:10:21;;;;;;;33.15;16.40;;;;;;;1.73;77.44;101485.53;4934020;28;20047;-95
2023/03/13 03:13:06;;;;;;;35.03;17.50;;;;;;;1.48;78.47;101479.78;4939465;28;20104;-96
2023/03/13 03:15:32;;;;;;;30.70;17.10;;;;;;;1.58;78.44;101493.41;5027907;23;20039;-90
2023/03/13 03:17:58;;;;;;;35.28;17.77;;;;;;;1.58;79.28;101524.34;4942859;28;20097;-89
2023/03/13 03:20:24;;;;;;;37.70;18.67;;;;;;;1.32;79.67;101496.59;4918467;29;20063;-91
2023/03/13 03:23:03;;;;;;;34.67;17.85;;;;;;;1.38;79.30;101502.44;4937876;29;20082;-95
2023/03/13 03:25:42;;;;;;;44.08;23.02;;;;;;;1.23;79.65;101479.38;4949373;29;20509;-92
2023/03/13 03:28:08;;;;;;;50.13;23.10;;;;;;;1.32;79.32;101492.16;4924959;29;20048;-89
2023/03/13 03:30:35;;;;;;;54.30;28.13;;;;;;;1.53;79.25;101510.50;4936368;29;20493;-90
2023/03/13 03:33:04;;;;;;;55.90;30.67;;;;;;;1.32;79.41;101507.19;4918240;29;20047;-92
2023/03/13 03:35:37;;;;;;;52.67;29.23;;;;;;;1.36;79.96;101512.25;4951976;29;20051;-93
2023/03/13 03:38:04;;;;;;;50.47;27.98;;;;;;;1.34;80.50;101529.16;4926783;29;20090;-92
2023/03/13 03:40:33;;;;;;;41.55;23.17;;;;;;;1.39;80.42;101530.63;4950716;29;20135;-94
2023/03/13 03:43:01;;;;;;;40.88;21.52;;;;;;;1.34;80.18;101527.38;4922392;29;20043;-93
2023/03/13 03:45:33;;;;;;;41.22;21.20;;;;;;;1.41;80.07;101535.84;4935847;29;20137;-94
2023/03/13 03:48:01;;;;;;;36.72;19.33;;;;;;;1.37;80.44;101529.84;4931530;29;20040;-91
2023/03/13 03:50:28;;;;;;;39.83;19.02;;;;;;;1.36;80.28;101527.25;4932035;29;20047;-91
2023/03/13 03:52:56;;;;;;;34.03;17.50;;;;;;;1.52;79.53;101530.81;4933281;29;20125;-90
2023/03/13 03:55:47;;;;;;;33.63;18.60;;;;;;;1.46;79.63;101532.00;4919703;28;20035;-90
2023/03/13 03:58:12;;;;;;;32.22;16.85;;;;;;;1.33;79.57;101520.34;4924169;29;20154;-93
2023/03/13 04:00:39;;;;;;;32.45;17.00;;;;;;;1.23;80.05;101516.47;4918786;29;20047;-93
2023/03/13 04:03:08;;;;;;;29.17;16.00;;;;;;;1.23;80.43;101537.66;4939941;28;20082;-89
2023/03/13 04:05:36;;;;;;;30.80;16.25;;;;;;;1.15;80.42;101529.28;4929493;28;20055;-94
2023/03/13 04:08:06;;;;;;;32.30;15.15;;;;;;;1.19;80.10;101544.91;4928731;28;20054;-93
2023/03/13 04:10:35;;;;;;;32.40;15.52;;;;;;;1.11;80.17;101536.50;4951663;28;20039;-90
2023/03/13 04:13:05;;;;;;;25.95;14.30;;;;;;;1.21;79.95;101547.47;4969148;28;20100;-92
2023/03/13 04:15:33;;;;;;;28.83;14.07;;;;;;;1.22;79.91;101543.91;4972803;28;20332;-92
2023/03/13 04:18:02;;;;;;;27.85;14.65;;;;;;;1.07;79.71;101549.97;4950035;28;20049;-93
2023/03/13 04:20:33;;;;;;;30.20;14.77;;;;;;;0.98;80.45;101554.81;4968467;28;20126;-90
2023/03/13 04:23:04;;;;;;;30.23;14.60;;;;;;;1.13;80.15;101568.22;4940503;29;20503;-90
2023/03/13 04:25:32;;;;;;;30.75;14.60;;;;;;;0.92;79.80;101546.31;4942831;29;20042;-89
2023/03/13 04:28:10;;;;;;;27.90;13.63;;;;;;;1.14;79.55;101577.88;4951826;28;20051;-90
2023/03/13 04:30:40;;;;;;;31.13;13.48;;;;;;;1.19;79.24;101576.69;4949051;28;20085;-89
2023/03/13 04:33:06;;;;;;;29.88;12.98;;;;;;;1.24;78.98;101573.81;4940685;28;20039;-89
2023/03/13 04:35:32;;;;;;;27.35;13.45;;;;;;;1.26;79.10;101587.81;4931186;29;20043;-90
2023/03/13 04:38:01;;;;;;;28.13;13.30;;;;;;;0.99;79.27;101553.88;4950134;28;20044;-90
2023/03/13 04:40:29;;;;;;;23.25;13.05;;;;;;;1.04;79.21;101558.94;4932576;29;20090;-90
2023/03/13 04:42:54;;;;;;;27.77;14.10;;;;;;;1.23;79.00;101582.69;4931583;29;20141;-90
2023/03/13 04:45:26;;;;;;;27.23;13.68;;;;;;;1.20;79.08;101572.25;4918902;29;20069;-92
2023/03/13 04:47:55;;;;;;;32.75;14.48;;;;;;;1.36;78.53;101593.50;4932533;29;20043;-91
2023/03/13 04:50:20;;;;;;;29.67;15.07;;;;;;;1.24;78.37;101563.19;4921956;29;20043;-91
2023/03/13 04:52:52;;;;;;;33.30;14.95;;;;;;;1.25;78.26;101578.19;4932619;29;20036;-91
2023/03/13 04:55:23;;;;;;;30.58;15.10;;;;;;;1.46;77.66;101590.31;4933289;29;20058;-91
2023/03/13 04:58:04;;;;;;;33.70;16.33;;;;;;;1.41;77.42;101587.06;4924270;29;20039;-90
2023/03/13 05:00:29;;;;;;;32.65;15.32;;;;;;;1.45;76.79;101588.63;4952016;29;20074;-89
2023/03/13 05:03:06;;;;;;;32.70;16.55;;;;;;;1.33;77.38;101578.63;4938126;28;20043;-89
2023/03/13 05:05:38;;;;;;;32.55;16.70;;;;;;;1.23;77.50;101582.69;4960433;29;20046;-89
2023/03/13 05:08:05;;;;;;;35.67;18.70;;;;;;;1.33;77.27;101588.38;4951083;29;20137;-87
2023/03/13 05:10:32;;;;;;;38.60;19.08;;;;;;;1.45;77.07;101606.28;4932974;29;20090;-84
2023/03/13 05:12:57;;;;;;;46.40;18.92;;;;;;;1.64;76.89;101635.38;4949775;29;20126;-86
2023/03/13 05:15:23;;;;;;;47.42;21.92;;;;;;;1.66;76.34;101610.50;4931110;29;20748;-87
2023/03/13 05:17:48;;;;;;;42.60;20.30;;;;;;;1.88;75.94;101631.44;4945474;28;20130;-87
2023/03/13 05:20:44;;;;;;;38.93;20.77;;;;;;;1.74;75.80;101602.13;4935564;29;20050;-84
2023/03/13 05:23:13;;;;;;;43.63;22.67;;;;;;;2.00;75.30;101631.72;4920942;29;20705;-87
2023/03/13 05:25:40;;;;;;;61.33;23.27;;;;;;;1.87;75.12;101611.16;4947794;28;20346;-83
2023/03/13 05:28:07;;;;;;;50.70;22.95;;;;;;;2.13;75.06;101647.81;4951348;29;20087;-84
2023/03/13 05:30:33;;;;;;;39.22;21.35;;;;;;;2.15;74.69;101636.19;4949306;29;20039;-84
2023/03/13 05:32:59;;;;;;;41.05;20.88;;;;;;;2.14;74.70;101639.78;4932218;29;20511;-87
2023/03/13 05:35:25;;;;;;;46.72;22.10;;;;;;;2.14;74.42;101618.56;4929073;29;20487;-85
2023/03/13 05:37:51;;;;;;;45.50;22.27;;;;;;;2.18;74.56;101628.06;4933411;29;20043;-84
2023/03/13 05:40:16;;;;;;;47.92;24.95;;;;;;;2.24;75.04;101659.56;4931913;29;20782;-84
2023/03/13 05:42:43;;;;;;;53.97;25.43;;;;;;;2.32;75.09;101662.69;4925416;29;20054;-87
2023/03/13 05:45:09;;;;;;;53.53;25.77;;;;;;;2.29;74.85;101644.28;4954531;29;20133;-83
2023/03/13 05:47:37;;;;;;;64.40;24.95;;;;;;;2.24;74.53;101637.50;4942629;29;20051;-84
2023/03/13 05:50:05;;;;;;;44.30;24.45;;;;;;;2.33;74.51;101661.72;4933586;29;20483;-85
2023/03/13 05:52:33;;;;;;;53.65;24.25;;;;;;;2.50;73.83;101662.59;4946609;28;20360;-84
2023/03/13 05:54:59;;;;;;;45.20;22.92;;;;;;;2.48;73.63;101656.50;4934387;29;20106;-83
2023/03/13 05:57:27;;;;;;;53.05;23.20;;;;;;;2.64;73.17;101659.19;4932742;29;20441;-83
2023/03/13 05:59:53;;;;;;;53.03;22.20;;;;;;;2.74;72.71;101655.94;4936184;29;20131;-88
2023/03/13 06:02:20;;;;;;;46.85;21.88;;;;;;;3.43;71.34;101682.16;4920304;29;20503;-84
2023/03/13 06:04:47;;;;;;;56.90;22.48;;;;;;;6.22;63.67;101644.63;4943558;29;20118;-85
2023/03/13 06:07:13;;;;;;;41.90;19.42;;;;;;;9.24;58.89;101655.31;4949196;29;20192;-85
2023/03/13 06:09:40;;;;;;;39.70;20.02;;;;;;;11.48;50.16;101635.56;4942216;29;20063;-87
2023/03/13 06:12:07;;;;;;;40.53;20.15;;;;;;;13.41;44.84;101631.28;4950513;29;20039;-84
2023/03/13 06:14:34;;;;;;;42.97;19.08;;;;;;;15.40;39.55;101655.38;4942770;29;20036;-85
2023/03/13 06:17:00;;;;;;;41.60;18.65;;;;;;;16.78;36.00;101647.13;4920977;29;20121;-85
2023/03/13 06:19:28;;;;;;;44.47;20.75;;;;;;;17.91;33.20;101666.41;4954334;29;20149;-90
2023/03/13 06:21:53;;;;;;;44.40;20.23;;;;;;;19.25;30.82;101647.22;4937509;29;20059;-89
2023/03/13 06:24:21;;;;;;;;;;;;;;;19.84;29.38;101667.91;4954470;29;20039;-86
2023/03/13 06:26:52;;;;;;;56.40;22.10;;;;;;;20.15;27.89;101653.03;4953586;29;19970;-90
2023/03/13 06:29:23;;;;;;;38.33;22.05;;;;;;;20.16;27.60;101644.66;4937755;29;20110;-89
2023/03/13 06:31:50;;;;;;;50.10;24.75;;;;;;;20.32;27.23;101648.06;4953656;28;20073;-88
2023/03/13 06:34:15;;;;;;;43.45;23.48;;;;;;;20.28;27.35;101653.13;4936614;29;20047;-87
2023/03/13 06:36:42;;;;;;;58.08;24.75;;;;;;;20.01;27.21;101633.81;4954815;28;20066;-85
2023/03/13 06:39:08;;;;;;;41.85;25.38;;;;;;;20.02;27.00;101632.78;4920279;29;20457;-87
2023/03/13 06:41:34;;;;;;;43.38;24.73;;;;;;;19.85;27.57;101636.00;4929389;29;20051;-89
2023/03/13 06:44:00;;;;;;;45.97;25.10;;;;;;;19.48;27.68;101635.25;4936739;29;20111;-90
2023/03/13 06:46:27;;;;;;;58.30;26.90;;;;;;;19.33;27.59;101646.25;4952238;29;20048;-92
2023/03/13 06:49:17;;;;;;;55.47;26.15;;;;;;;19.56;27.85;101665.97;4925172;29;20512;-90
2023/03/13 06:51:49;;;;;;;55.17;25.92;;;;;;;19.28;28.03;101629.63;4955178;29;20047;-91
2023/03/13 06:54:17;;;;;;;45.88;23.85;;;;;;;19.44;27.81;101655.81;4947258;29;20051;-86
2023/03/13 06:56:44;;;;;;;42.67;23.92;;;;;;;19.34;27.79;101645.22;4937421;29;20134;-87
2023/03/13 06:59:10;;;;;;;51.00;23.92;;;;;;;19.48;27.54;101636.13;4917580;29;20476;-84
2023/03/13 07:01:58;;;;;;;34.95;22.88;;;;;;;19.38;27.97;101641.88;4932610;29;20058;-87
2023/03/13 07:04:25;;;;;;;49.10;24.63;;;;;;;19.52;27.72;101653.75;4938089;29;20043;-91
2023/03/13 07:06:51;;;;;;;54.22;25.77;;;;;;;19.37;27.98;101661.19;4934488;29;20042;-86
2023/03/13 07:09:18;;;;;;;;;;;;;;;19.47;27.80;101661.69;4920285;29;20036;-87
2023/03/13 07:11:47;;;;;;;49.00;24.33;;;;;;;19.19;27.95;101643.38;4918368;28;19926;-91
2023/03/13 07:14:13;;;;;;;52.20;23.48;;;;;;;19.18;28.07;101641.69;4931715;29;20043;-85
2023/03/13 07:16:38;;;;;;;;;;;;;;;19.56;27.45;101659.69;4934568;29;20131;-87
2023/03/13 07:19:06;;;;;;;39.20;19.90;;;;;;;18.98;26.47;101637.91;4952129;29;19957;-87
2023/03/13 07:21:32;;;;;;;36.92;19.67;;;;;;;19.06;26.77;101673.25;4951158;29;20039;-86
2023/03/13 07:24:00;;;;;;;;;;;;;;;18.96;27.02;101669.97;4934767;29;20058;-86
2023/03/13 07:26:29;;;;;;;26.50;16.50;;;;;;;18.75;26.68;101668.88;4932950;29;20074;-87
2023/03/13 07:28:55;;;;;;;23.33;15.52;;;;;;;18.39;26.62;101654.34;4953275;29;20051;-87
2023/03/13 07:31:23;;;;;;;28.27;15.30;;;;;;;18.75;26.30;101641.63;4933888;29;20125;-87
2023/03/13 07:33:57;;;;;;;18.55;11.05;;;;;;;18.44;25.29;101666.34;4937633;29;20138;-88
2023/03/13 07:36:28;;;;;;;28.52;13.30;;;;;;;18.34;25.79;101661.19;4933102;29;20492;-89
2023/03/13 07:38:55;;;;;;;14.93;11.15;;;;;;;18.12;25.82;101638.47;4922619;29;20505;-86
2023/03/13 07:41:44;;;;;;;16.10;9.57;;;;;;;18.47;24.60;101643.34;4931238;29;20520;-86
2023/03/13 07:44:12;;;;;;;16.05;9.35;;;;;;;18.00;25.33;101630.94;4927767;29;20405;-88
2023/03/13 07:46:38;;;;;;;13.02;8.57;;;;;;;18.09;25.11;101648.88;4924368;29;20039;-84
2023/03/13 07:49:04;;;;;;;14.48;9.00;;;;;;;18.54;24.56;101666.03;4927372;29;20043;-89
2023/03/13 07:51:30;;;;;;;14.75;8.00;;;;;;;19.06;23.74;101666.91;4923691;29;20059;-87
2023/03/13 07:53:56;;;;;;;12.38;8.15;;;;;;;20.07;23.90;101664.94;4931327;29;20047;-88
2023/03/13 07:56:24;;;;;;;12.13;7.25;;;;;;;20.15;22.06;101637.47;4929282;29;20040;-90
2023/03/13 07:58:52;;;;;;;9.15;6.70;;;;;;;20.28;21.62;101647.66;4929956;29;20040;-87
2023/03/13 08:01:24;;;;;;;16.80;7.10;;;;;;;21.08;21.13;101659.78;4929369;29;20091;-92
2023/03/13 08:03:50;;;;;;;11.70;7.35;;;;;;;19.65;22.46;101649.47;4935518;29;20059;-88
2023/03/13 08:06:25;;;;;;;11.82;7.60;;;;;;;21.21;21.24;101661.72;4916712;29;20050;-90
2023/03/13 08:08:52;;;;;;;16.75;7.20;;;;;;;22.05;20.20;101646.59;4926768;29;20500;-85
2023/03/13 08:11:24;;;;;;;13.80;8.00;;;;;;;22.79;20.36;101647.25;4933766;29;20498;-85
2023/03/13 08:13:51;;;;;;;10.23;5.47;;;;;;;23.91;17.50;101653.06;4941068;29;20114;-87
2023/03/13 08:16:20;;;;;;;8.32;3.72;;;;;;;24.36;15.74;101650.03;4917076;29;20054;-91
2023/03/13 08:18:48;;;;;;;6.88;2.95;;;;;;;24.84;14.90;101649.28;4905315;29;20134;-92
2023/03/13 08:21:15;;;;;;;4.00;1.90;;;;;;;23.73;13.73;101652.97;4916212;29;20047;-88
2023/03/13 08:23:41;;;;;;;4.68;1.70;;;;;;;23.53;13.77;101644.88;4927857;29;20052;-88
2023/03/13 08:26:08;;;;;;;4.20;1.80;;;;;;;22.73;14.68;101642.63;4916226;29;20054;-87
2023/03/13 08:29:09;;;;;;;3.30;2.00;;;;;;;23.00;14.42;101664.47;4933415;29;20608;-86
2023/03/13 08:31:52;;;;;;;5.10;2.03;;;;;;;24.33;13.93;101657.91;4935255;29;20071;-86
2023/03/13 08:34:20;;;;;;;4.90;1.70;;;;;;;25.35;13.05;101636.06;4914535;29;20043;-90
2023/03/13 08:36:48;;;;;;;4.00;1.63;;;;;;;22.89;14.60;101633.88;4936098;29;20036;-91
2023/03/13 08:39:17;;;;;;;4.25;1.60;;;;;;;24.19;14.12;101647.06;4924420;29;20052;-89
2023/03/13 08:41:43;;;;;;;4.57;1.73;;;;;;;25.74;13.09;101627.41;4906680;29;20044;-91
2023/03/13 08:44:21;;;;;;;5.38;1.60;;;;;;;25.46;13.28;101624.25;4919308;29;20063;-92
2023/03/13 08:46:48;;;;;;;6.00;1.73;;;;;;;25.26;12.87;101631.97;4939491;29;20047;-90
2023/03/13 08:49:16;;;;;;;5.65;2.03;;;;;;;25.93;13.15;101640.00;4934804;29;20047;-91
2023/03/13 08:51:41;;;;;;;2.95;1.80;;;;;;;25.86;13.43;101637.34;4918343;29;20413;-92
2023/03/13 08:54:10;;;;;;;6.22;2.20;;;;;;;26.67;13.40;101654.06;4946548;29;20032;-91
2023/03/13 08:56:36;;;;;;;7.72;2.10;;;;;;;26.57;13.78;101637.28;4934703;29;20095;-91
2023/03/13 08:59:07;;;;;;;5.90;2.00;;;;;;;27.46;12.84;101661.63;4928532;29;20040;-88
2023/03/13 09:05:00;;;;;;;5.57;1.77;;;;;;;25.57;13.71;101650.13;4940747;29;20042;-86
2023/03/13 09:07:26;;;;;;;4.35;1.95;;;;;;;26.58;14.08;101649.19;4925633;29;20078;-85
2023/03/13 09:09:52;;;;;;;6.82;2.30;;;;;;;25.89;14.36;101658.94;4922708;29;20051;-89
2023/03/13 09:12:20;;;;;;;3.72;2.05;;;;;;;24.71;14.86;101645.88;4913778;29;20073;-89
2023/03/13 09:14:56;;;;;;;6.45;2.17;;;;;;;25.31;14.92;101645.88;4916010;29;20098;-87
2023/03/13 09:17:22;;;;;;;3.53;1.83;;;;;;;25.79;14.72;101655.06;4951708;29;20443;-87
2023/03/13 09:19:50;;;;;;;4.05;1.98;;;;;;;25.30;14.50;101640.59;4931195;29;20046;-87
2023/03/13 09:22:16;;;;;;;6.28;1.90;;;;;;;26.05;14.71;101657.34;4923219;29;20381;-84
2023/03/13 09:24:43;;;;;;;5.80;2.10;;;;;;;26.60;14.50;101620.28;4942319;29;20066;-88
2023/03/13 09:27:09;;;;;;;6.85;2.47;;;;;;;25.21;16.46;101640.09;4923947;29;20149;-87
2023/03/13 09:29:38;;;;;;;4.60;2.20;;;;;;;25.55;15.54;101659.69;4946378;29;20376;-86
2023/03/13 09:32:04;;;;;;;5.40;2.60;;;;;;;24.71;16.57;101629.38;4936723;29;20156;-86
2023/03/13 09:34:31;;;;;;;5.97;2.30;;;;;;;25.30;16.19;101649.69;4954913;29;20264;-87
2023/03/13 09:36:57;;;;;;;4.80;2.50;;;;;;;26.00;16.14;101645.38;4954275;29;20411;-85
2023/03/13 09:39:24;;;;;;;4.78;2.50;;;;;;;25.45;16.23;101658.38;4934954;29;20047;-93
2023/03/13 09:42:01;;;;;;;9.80;3.08;;;;;;;24.44;18.04;101635.13;4936382;29;20055;-85
2023/03/13 09:44:32;;;;;;;6.22;3.10;;;;;;;23.91;17.94;101638.50;4933634;29;20047;-86
2023/03/13 09:47:11;;;;;;;6.05;2.83;;;;;;;21.91;20.32;101669.56;4937113;29;20039;-89
2023/03/13 09:49:42;;;;;;;8.48;2.97;;;;;;;21.74;20.92;101679.25;4936091;29;20484;-86
2023/03/13 09:52:29;;;;;;;6.57;2.65;;;;;;;23.35;19.50;101686.84;4913575;29;20050;-90
2023/03/13 09:55:23;;;;;;;5.78;3.30;;;;;;;21.86;21.54;101663.88;4938805;29;20138;-91
2023/03/13 09:58:07;;;;;;;8.10;3.38;;;;;;;23.77;19.38;101685.28;4913425;29;20047;-84
2023/03/13 10:00:39;;;;;;;4.85;2.75;;;;;;;25.24;17.86;101672.69;4941159;29;20047;-85
2023/03/13 10:03:09;;;;;;;3.88;2.20;;;;;;;23.45;19.16;101667.13;4946714;29;20047;-85
2023/03/13 10:05:49;;;;;;;10.02;4.57;;;;;;;24.36;18.93;101669.28;4933876;29;20059;-84
2023/03/13 10:08:37;;;;;;;5.82;2.60;;;;;;;25.53;17.36;101670.09;4945958;29;20497;-83
2023/03/13 10:11:45;;;;;;;5.68;1.90;;;;;;;24.92;17.75;101669.28;4938164;29;20039;-84
2023/03/13 10:14:13;;;;;;;5.57;2.80;;;;;;;24.64;17.98;101651.44;4886850;29;20407;-84
2023/03/13 10:16:56;;;;;;;8.27;3.97;;;;;;;24.78;18.12;101679.59;4936703;29;20058;-84
2023/03/13 10:19:32;;;;;;;12.00;4.85;;;;;;;24.94;18.00;101656.13;4950844;29;20523;-85
2023/03/13 10:21:57;;;;;;;11.13;4.72;;;;;;;24.43;18.52;101660.97;4952342;29;20088;-84
2023/03/13 10:24:35;;;;;;;5.35;1.70;;;;;;;24.84;17.94;101648.41;4949163;29;20095;-85
2023/03/13 10:27:01;;;;;;;7.50;1.50;;;;;;;23.69;18.64;101665.47;4913113;29;20130;-84
2023/03/13 10:29:29;;;;;;;4.85;1.65;;;;;;;23.37;19.50;101657.28;4935176;29;20051;-86
2023/03/13 10:32:04;;;;;;;4.90;1.65;;;;;;;23.27;19.37;101649.53;4941457;29;20040;-84
2023/03/13 10:35:06;;;;;;;11.55;1.83;;;;;;;23.82;18.85;101656.31;4946231;29;20044;-86
2023/03/13 10:37:41;;;;;;;5.32;1.60;;;;;;;22.94;19.94;101658.78;4897032;29;20040;-86
2023/03/13 10:40:22;;;;;;;8.40;2.03;;;;;;;22.65;20.00;101637.41;4935343;29;20409;-86
2023/03/13 10:42:48;;;;;;;18.63;2.25;;;;;;;24.63;18.53;101628.63;4940995;29;20039;-86
2023/03/13 10:45:23;;;;;;;9.57;2.08;;;;;;;22.87;19.38;101646.97;4934215;29;20063;-86
2023/03/13 10:47:56;;;;;;;5.82;1.70;;;;;;;23.15;19.72;101629.34;4930391;29;20039;-85
2023/03/13 10:50:25;;;;;;;4.88;1.85;;;;;;;22.39;20.28;101630.13;4943883;29;20043;-88
2023/03/13 10:52:50;;;;;;;10.27;2.10;;;;;;;20.93;22.04;101642.72;4932412;29;20096;-87
2023/03/13 10:55:22;;;;;;;4.07;1.60;;;;;;;21.11;22.13;101635.81;4934337;29;20071;-87
2023/03/13 10:58:01;;;;;;;4.57;1.60;;;;;;;22.00;21.16;101627.22;4931423;29;20114;-85
2023/03/13 11:00:27;;;;;;;5.22;1.75;;;;;;;22.40;20.70;101629.88;4934605;29;20035;-86
2023/03/13 11:02:53;;;;;;;4.50;1.50;;;;;;;22.73;20.46;101629.78;4947675;29;20032;-84
2023/03/13 11:05:27;;;;;;;7.85;1.60;;;;;;;23.37;19.89;101625.19;4934651;29;20046;-88
2023/03/13 11:07:53;;;;;;;5.80;1.75;;;;;;;23.32;19.04;101622.28;4948178;29;20365;-86
2023/03/13 11:10:20;;;;;;;5.57;1.80;;;;;;;23.04;20.09;101619.94;4933185;29;20473;-84
2023/03/13 11:12:56;;;;;;;6.47;2.03;;;;;;;22.10;20.66;101622.16;4932672;29;20545;-83
2023/03/13 11:15:28;;;;;;;4.60;1.40;;;;;;;20.66;22.50;101615.28;4933505;29;20146;-85
2023/03/13 11:18:00;;;;;;;4.53;1.60;;;;;;;22.49;21.00;101603.94;4948564;29;20051;-84
2023/03/13 11:20:29;;;;;;;6.75;1.88;;;;;;;21.78;21.56;101603.91;4933699;29;20465;-90
2023/03/13 11:23:04;;;;;;;10.68;2.00;;;;;;;21.81;21.92;101600.72;4945521;29;20479;-84
2023/03/13 11:25:46;;;;;;;4.43;1.80;;;;;;;21.28;22.91;101604.28;4937893;29;20057;-85
2023/03/13 11:28:33;;;;;;;4.65;1.50;;;;;;;19.33;24.55;101591.72;4937524;29;20070;-85
2023/03/13 11:31:07;;;;;;;4.43;2.08;;;;;;;18.98;25.43;101597.88;4925758;29;20071;-85
2023/03/13 11:33:52;;;;;;;3.95;1.65;;;;;;;18.76;26.03;101587.97;4947324;29;20526;-85
2023/03/13 11:36:24;;;;;;;9.52;2.30;;;;;;;19.34;26.17;101567.00;4951479;29;20073;-83
2023/03/13 11:39:01;;;;;;;5.35;2.10;;;;;;;20.06;24.48;101578.63;4948368;29;20118;-84
2023/03/13 11:41:56;;;;;;;7.35;1.75;;;;;;;20.10;24.85;101585.38;4926270;29;20046;-84